This is the latest recevied weather packets stored in our database for station/object KC9MWQ-13. If no packets are shown the sender has not sent any weather packets the latest 10 day(s).
| Time | Temp. | Humidity | Pressure | Rain* | Wind** | Luminosity | Snow |
|---|---|---|---|---|---|---|---|
| 1777825363 | 15.56° C | 51% | 1017.1 hPa | 0 mm | - | 678 W/m² | - |
| 1777825059 | 15° C | 52% | 1017 hPa | 0 mm | - | 691 W/m² | - |
| 1777824755 | 15° C | 52% | 1017.1 hPa | 0 mm | - | 687 W/m² | - |
| 1777824452 | 15° C | 53% | 1017.1 hPa | 0 mm | - | 704 W/m² | - |
| 1777824148 | 15° C | 54% | 1017 hPa | 0 mm | - | 653 W/m² | - |
| 1777823844 | 15° C | 53% | 1017.6 hPa | 0 mm | - | 721 W/m² | - |
| 1777823542 | 15° C | 51% | 1017.4 hPa | 0 mm | - | 731 W/m² | - |
| 1777823239 | 15° C | 53% | 1017.5 hPa | 0 mm | - | 654 W/m² | - |
| 1777822937 | 15° C | 53% | 1017.7 hPa | 0 mm | - | 637 W/m² | - |
| 1777822634 | 15° C | 55% | 1017.7 hPa | 0 mm | - | 693 W/m² | - |
| 1777822332 | 14.44° C | 53% | 1017.6 hPa | 0 mm | - | 715 W/m² | - |
| 1777822029 | 14.44° C | 52% | 1017.4 hPa | 0 mm | - | 739 W/m² | - |
| 1777821727 | 15° C | 54% | 1017.6 hPa | 0 mm | - | 712 W/m² | - |
| 1777821424 | 14.44° C | 54% | 1017.9 hPa | 0 mm | - | 704 W/m² | - |
| 1777821121 | 14.44° C | 58% | 1017.9 hPa | 0 mm | - | 741 W/m² | - |
| 1777820818 | 13.89° C | 54% | 1017.8 hPa | 0 mm | - | 837 W/m² | - |
| 1777820514 | 14.44° C | 56% | 1017.9 hPa | 0 mm | - | 740 W/m² | - |
| 1777820211 | 13.89° C | 55% | 1017.9 hPa | 0 mm | - | 731 W/m² | - |
| 1777819908 | 13.89° C | 58% | 1017.8 hPa | 0 mm | - | 677 W/m² | - |
| 1777819605 | 13.33° C | 58% | 1018 hPa | 0 mm | - | 700 W/m² | - |
| 1777819303 | 13.33° C | 56% | 1017.9 hPa | 0 mm | - | 724 W/m² | - |
| 1777818999 | 13.33° C | 58% | 1017.8 hPa | 0 mm | - | 683 W/m² | - |
| 1777818697 | 13.33° C | 58% | 1018.2 hPa | 0 mm | - | 724 W/m² | - |
| 1777818394 | 13.33° C | 57% | 1018 hPa | 0 mm | - | 691 W/m² | - |
| 1777818090 | 13.33° C | 59% | 1018 hPa | 0 mm | - | 551 W/m² | - |
* Rain latest hour (hover to see other rain measurements)
** Current wind speed in m/s (hover to see current wind gust speed)